Edzard Schulte — 2CVX9 — position and weather

sailwx.info

Track history (hours):
 
Tides and Currents Weather Stations Pressure Air Temp Water Temp Dewpoint Dewpoint Depression Visibility Wind Speed Wind Dir Waves Ship Positions

Edzard Schulte

Last reported at 2015-Apr-20 08:14 UTC. Time now 2015-Apr-21 06:34 UTC.
Position N 37°33' W 001°01'.

Length 145 m; draft 6 m.

Type: Tanker. MMSI: 235076245.

Date/timePositionNaut miles runAvg speedWind from/ knotsBaromVisibWave heightAir tempDewpointWater temp
2015-Apr-20 08:14N 37°33' W 001°01'4 4.8
2015-Apr-20 07:26N 37°30' W 001°04'21711.2
2015-Apr-19 12:05N 36°01' W 005°11'815.7
2015-Apr-19 11:33N 35°58' W 005°21'26011.3
2015-Apr-18 12:31N 38°13' W 009°59'1313.2
2015-Apr-18 11:33N 38°25' W 010°03'1413.5
2015-Apr-18 10:33N 38°39' W 010°06'1313.2
2015-Apr-18 09:32N 38°52' W 010°07'1313.0
2015-Apr-18 08:33N 39°05' W 010°07'60612.0
2015-Apr-16 06:04N 48°43' W 005°55'14612.7
2015-Apr-15 18:33N 50°00' W 002°44'1211.4
2015-Apr-15 17:32N 50°03' W 002°27'1110.5
2015-Apr-15 16:31N 50°06' W 002°11'1110.7
2015-Apr-15 15:28N 50°09' W 001°54'1211.9
2015-Apr-15 14:29N 50°12' W 001°37'1313.5
2015-Apr-15 13:33N 50°16' W 001°18'5115.0
2015-Apr-15 10:08N 50°30' W 000°00'1314.0
2015-Apr-15 09:14N 50°33' E 000°19'913.3
2015-Apr-15 08:33N 50°36' E 000°32'1312.5
2015-Apr-15 07:33N 50°42' E 000°50'1212.0
2015-Apr-15 06:33N 50°48' E 001°06'1212.4
2015-Apr-15 05:33N 50°56' E 001°20'1414.3
2015-Apr-15 04:33N 51°07' E 001°36'1514.7
2015-Apr-15 03:34N 51°18' E 001°50'1413.6
2015-Apr-15 02:33N 51°30' E 002°03'1312.7
2015-Apr-15 01:33N 51°39' E 002°16'1512.2
2015-Apr-15 00:21N 51°50' E 002°32'2310.9
2015-Apr-14 22:11N 52°03' E 003°05'811.4
2015-Apr-14 21:30N 52°03' E 003°17'1211.6
2015-Apr-14 20:26N 52°03' E 003°37'1011.5
2015-Apr-14 19:34N 52°02' E 003°54'9 9.2
2015-Apr-14 18:34N 51°59' E 004°07'9 9.1
2015-Apr-14 17:34N 51°54' E 004°20'0 0.4
2015-Apr-14 16:31N 51°54' E 004°20'2 0.1
2015-Apr-13 04:33N 51°54' E 004°17'9 8.5
2015-Apr-13 03:33N 51°59' E 004°05'10 9.6
2015-Apr-13 02:32N 51°59' E 003°49'11 7.6
2015-Apr-13 01:05N 51°56' E 003°33'0 0.7
2015-Apr-13 00:31N 51°55' E 003°33'0 0.0
2015-Apr-12 23:31N 51°55' E 003°33'0 0.1
2015-Apr-12 21:28N 51°55' E 003°33'0 0.0
2015-Apr-12 20:25N 51°56' E 003°33'0 0.0
2015-Apr-12 19:31N 51°55' E 003°33'0 0.1
2015-Apr-12 18:34N 51°55' E 003°33'9 8.2
2015-Apr-12 17:26N 51°54' E 003°18'1113.1
2015-Apr-12 16:33N 51°50' E 003°01'1312.4
2015-Apr-12 15:33N 51°47' E 002°41'1111.4
2015-Apr-12 14:33N 51°39' E 002°28'1111.3
2015-Apr-12 13:34N 51°31' E 002°16'1111.0
2015-Apr-12 12:33N 51°21' E 002°08'1010.3
2015-Apr-12 11:34N 51°12' E 001°60'1111.2
2015-Apr-12 10:34N 51°06' E 001°44'1111.4
2015-Apr-12 09:33N 50°58' E 001°32'1611.9
2015-Apr-12 08:11N 50°43' E 001°22'  
Track history (hours):
 
Tides and Currents Weather Stations Pressure Air Temp Water Temp Dewpoint Dewpoint Depression Visibility Wind Speed Wind Dir Waves Ship Positions

Edzard Schulte

Last reported at 2015-Apr-20 08:14 UTC. Time now 2015-Apr-21 06:34 UTC.
Position N 37°33' W 001°01'.

Length 145 m; draft 6 m.

Type: Tanker. MMSI: 235076245.

Date/timePositionNaut miles runAvg speedWind from/ knotsBaromVisibWave heightAir tempDewpointWater temp
2015-Apr-20 08:14N 37°33' W 001°01'4 4.8
2015-Apr-20 07:26N 37°30' W 001°04'21711.2
2015-Apr-19 12:05N 36°01' W 005°11'815.7
2015-Apr-19 11:33N 35°58' W 005°21'26011.3
2015-Apr-18 12:31N 38°13' W 009°59'1313.2
2015-Apr-18 11:33N 38°25' W 010°03'1413.5
2015-Apr-18 10:33N 38°39' W 010°06'1313.2
2015-Apr-18 09:32N 38°52' W 010°07'1313.0
2015-Apr-18 08:33N 39°05' W 010°07'60612.0
2015-Apr-16 06:04N 48°43' W 005°55'14612.7
2015-Apr-15 18:33N 50°00' W 002°44'1211.4
2015-Apr-15 17:32N 50°03' W 002°27'1110.5
2015-Apr-15 16:31N 50°06' W 002°11'1110.7
2015-Apr-15 15:28N 50°09' W 001°54'1211.9
2015-Apr-15 14:29N 50°12' W 001°37'1313.5
2015-Apr-15 13:33N 50°16' W 001°18'5115.0
2015-Apr-15 10:08N 50°30' W 000°00'1314.0
2015-Apr-15 09:14N 50°33' E 000°19'913.3
2015-Apr-15 08:33N 50°36' E 000°32'1312.5
2015-Apr-15 07:33N 50°42' E 000°50'1212.0
2015-Apr-15 06:33N 50°48' E 001°06'1212.4
2015-Apr-15 05:33N 50°56' E 001°20'1414.3
2015-Apr-15 04:33N 51°07' E 001°36'1514.7
2015-Apr-15 03:34N 51°18' E 001°50'1413.6
2015-Apr-15 02:33N 51°30' E 002°03'1312.7
2015-Apr-15 01:33N 51°39' E 002°16'1512.2
2015-Apr-15 00:21N 51°50' E 002°32'2310.9
2015-Apr-14 22:11N 52°03' E 003°05'811.4
2015-Apr-14 21:30N 52°03' E 003°17'1211.6
2015-Apr-14 20:26N 52°03' E 003°37'1011.5
2015-Apr-14 19:34N 52°02' E 003°54'9 9.2
2015-Apr-14 18:34N 51°59' E 004°07'9 9.1
2015-Apr-14 17:34N 51°54' E 004°20'0 0.4
2015-Apr-14 16:31N 51°54' E 004°20'2 0.1
2015-Apr-13 04:33N 51°54' E 004°17'9 8.5
2015-Apr-13 03:33N 51°59' E 004°05'10 9.6
2015-Apr-13 02:32N 51°59' E 003°49'11 7.6
2015-Apr-13 01:05N 51°56' E 003°33'0 0.7
2015-Apr-13 00:31N 51°55' E 003°33'0 0.0
2015-Apr-12 23:31N 51°55' E 003°33'0 0.1
2015-Apr-12 21:28N 51°55' E 003°33'0 0.0
2015-Apr-12 20:25N 51°56' E 003°33'0 0.0
2015-Apr-12 19:31N 51°55' E 003°33'0 0.1
2015-Apr-12 18:34N 51°55' E 003°33'9 8.2
2015-Apr-12 17:26N 51°54' E 003°18'1113.1
2015-Apr-12 16:33N 51°50' E 003°01'1312.4
2015-Apr-12 15:33N 51°47' E 002°41'1111.4
2015-Apr-12 14:33N 51°39' E 002°28'1111.3
2015-Apr-12 13:34N 51°31' E 002°16'1111.0
2015-Apr-12 12:33N 51°21' E 002°08'1010.3
2015-Apr-12 11:34N 51°12' E 001°60'1111.2
2015-Apr-12 10:34N 51°06' E 001°44'1111.4
2015-Apr-12 09:33N 50°58' E 001°32'1611.9
2015-Apr-12 08:11N 50°43' E 001°22'  

Dump ship's entire track history